Kezdőlap
METAR-TAF:

METAR-TAF

Repülőterek :

Diori Hamani nemzetközi repülőtér

Niamey, Niger

földrajzi szélesség: 13-29N, földrajzi hosszúság: 002-10E, magasság: 223 m

Jelenlegi meteorológiai megfigyelések

A jelentés 3 órával és 31 perccel ezelõtt készült, 10:00 UTC
Keleti szél 11 kt
Hőmérséklet 27°C
Páratartalom 15%
Légköri nyomás 1018 hPa
Látótávolság 10 km, vagy több
felhőtlen 1500 m magasságban, és nincs gomolyfelhõ

METAR: DRRN 111000Z 09011KT CAVOK 27/M02 Q1018 NOSIG

Idő: 14:31 (13:31 UTC)

Előrejelzés

A jelentés 8 órával és 31 perccel ezelõtt készült, 05:00 UTC
Az előrejelzés 11-én 06 óra UTC és 12-én 12 óra UTC között érvényes
Északkeleti szél 8 kt
Látótávolság: 8000 m
11-én 06 óra UTC és 11-én 09 óra UTC között ideiglenes
Látótávolság: 4500 m
kiterjedt por

TAF: DRRN 110500Z 1106/1212 04008KT 8000 NSC TEMPO 1106/1109 4500 DU

Meteorológiai megfigyelések és előrejelzések több, mint 4000 repülőtéren (METAR és TAF jelentéseket).

A térképen piros és sárga pontok jelzik az elérhető meteorológiai állomásokat.

Mozgassa az egeret a pont fölött, hogy megjelenjen az állomás neve.

Azután kattintson az időjárási megfigyelések és előrejelzések megtekintéséhez.

A térkép megváltoztatása: kattintson a fekete keresztel jelölt zöld gombra ráközelítéshez, a vonallal jelölt zöld gombra távolításhoz, vagy a zöld nyilakra a szomszédos térképek eléréséhez.


METAR-TAF: